Time,TemperatureF,DewpointF,PressureIn,WindDirection,WindDirectionDegrees,WindSpeedMPH,WindSpeedGustMPH,Humidity,HourlyPrecipIn,Conditions,Clouds,dailyrainin,SoftwareType,DateUTC
2013-03-22 00:11:00,11.0,6.0,30.00,WNW,290,12.0,17.0,80,0.00,,,0.00,weatherlink.com 1.10,2013-03-22 04:11:00,
2013-03-22 00:26:00,10.9,6.0,30.01,North,11,5.0,16.0,80,0.00,,,0.00,weatherlink.com 1.10,2013-03-22 04:26:00,
2013-03-22 00:41:00,10.5,6.0,30.01,West,259,2.0,12.0,82,0.00,,,0.00,weatherlink.com 1.10,2013-03-22 04:41:00,
2013-03-22 00:56:00,10.3,6.0,30.00,WNW,290,7.0,14.0,82,0.00,,,0.00,weatherlink.com 1.10,2013-03-22 04:56:00,
2013-03-22 01:12:00,10.2,6.0,30.01,WNW,302,4.0,8.0,83,0.00,,,0.00,weatherlink.com 1.10,2013-03-22 05:12:00,
2013-03-22 01:27:00,10.3,6.0,30.01,NNW,328,4.0,12.0,83,0.00,,,0.00,weatherlink.com 1.10,2013-03-22 05:27:00,
2013-03-22 01:42:00,10.5,6.0,30.01,WNW,294,11.0,12.0,82,0.00,,,0.00,weatherlink.com 1.10,2013-03-22 05:42:00,
2013-03-22 01:57:00,10.5,6.0,30.02,NW,311,8.0,17.0,81,0.00,,,0.00,weatherlink.com 1.10,2013-03-22 05:57:00,
2013-03-22 02:12:00,10.6,6.0,30.01,West,267,4.0,17.0,81,0.00,,,0.00,weatherlink.com 1.10,2013-03-22 06:12:00,
2013-03-22 02:27:00,10.7,6.0,30.02,WNW,292,6.0,17.0,80,0.00,,,0.00,weatherlink.com 1.10,2013-03-22 06:27:00,
2013-03-22 02:42:00,11.0,6.0,30.01,SSE,154,3.0,18.0,80,0.00,,,0.00,weatherlink.com 1.10,2013-03-22 06:42:00,
2013-03-22 02:57:00,10.8,6.0,30.01,NW,304,7.0,20.0,80,0.00,,,0.00,weatherlink.com 1.10,2013-03-22 06:57:00,
2013-03-22 03:12:00,11.0,6.0,30.01,NW,307,5.0,23.0,80,0.00,,,0.00,weatherlink.com 1.10,2013-03-22 07:12:00,
2013-03-22 03:27:00,11.0,6.0,30.01,WNW,299,4.0,24.0,80,0.00,,,0.00,weatherlink.com 1.10,2013-03-22 07:27:00,
2013-03-22 03:42:00,10.8,6.0,30.01,NW,313,6.0,16.0,80,0.00,,,0.00,weatherlink.com 1.10,2013-03-22 07:42:00,
2013-03-22 03:57:00,10.7,6.0,30.01,NW,325,5.0,17.0,81,0.00,,,0.00,weatherlink.com 1.10,2013-03-22 07:57:00,
2013-03-22 04:12:00,10.8,6.0,30.02,WNW,299,6.0,19.0,81,0.00,,,0.00,weatherlink.com 1.10,2013-03-22 08:12:00,
2013-03-22 04:27:00,10.8,6.0,30.01,WSW,255,8.0,18.0,81,0.00,,,0.00,weatherlink.com 1.10,2013-03-22 08:27:00,
2013-03-22 04:42:00,10.8,6.0,30.01,WSW,252,7.0,15.0,81,0.00,,,0.00,weatherlink.com 1.10,2013-03-22 08:42:00,
2013-03-22 04:57:00,10.8,6.0,30.02,WNW,298,11.0,13.0,82,0.00,,,0.00,weatherlink.com 1.10,2013-03-22 08:57:00,
2013-03-22 05:12:00,11.0,7.0,30.02,SW,227,8.0,15.0,82,0.00,,,0.00,weatherlink.com 1.10,2013-03-22 09:12:00,
2013-03-22 05:28:00,11.1,6.0,30.02,NNW,333,3.0,17.0,81,0.00,,,0.00,weatherlink.com 1.10,2013-03-22 09:28:00,
2013-03-22 05:43:00,11.2,6.0,30.03,WNW,300,10.0,13.0,81,0.00,,,0.00,weatherlink.com 1.10,2013-03-22 09:43:00,
2013-03-22 05:58:00,11.1,7.0,30.03,WNW,288,11.0,17.0,82,0.00,,,0.00,weatherlink.com 1.10,2013-03-22 09:58:00,
2013-03-22 06:13:00,11.3,7.0,30.04,West,270,2.0,14.0,82,0.00,,,0.00,weatherlink.com 1.10,2013-03-22 10:13:00,
2013-03-22 06:28:00,11.5,7.0,30.05,North,350,3.0,8.0,82,0.00,,,0.00,weatherlink.com 1.10,2013-03-22 10:28:00,
2013-03-22 06:43:00,11.6,7.0,30.06,WSW,250,3.0,8.0,81,0.00,,,0.00,weatherlink.com 1.10,2013-03-22 10:43:00,
2013-03-22 06:58:00,11.7,7.0,30.07,WNW,298,3.0,9.0,81,0.00,,,0.00,weatherlink.com 1.10,2013-03-22 10:58:00,
2013-03-22 07:13:00,11.9,7.0,30.07,NW,313,4.0,10.0,81,0.00,,,0.00,weatherlink.com 1.10,2013-03-22 11:13:00,
2013-03-22 07:28:00,12.1,7.0,30.07,SSE,151,0.0,11.0,80,0.00,,,0.00,weatherlink.com 1.10,2013-03-22 11:28:00,
2013-03-22 07:43:00,12.1,7.0,30.08,NW,305,3.0,9.0,80,0.00,,,0.00,weatherlink.com 1.10,2013-03-22 11:43:00,
2013-03-22 07:58:00,12.7,7.0,30.09,NW,312,8.0,9.0,79,0.00,,,0.00,weatherlink.com 1.10,2013-03-22 11:58:00,
2013-03-22 08:13:00,13.9,7.0,30.09,WNW,298,0.0,8.0,75,0.00,,,0.00,weatherlink.com 1.10,2013-03-22 12:13:00,
2013-03-22 08:28:00,14.1,7.0,30.09,WNW,299,2.0,5.0,74,0.00,,,0.00,weatherlink.com 1.10,2013-03-22 12:28:00,
2013-03-22 08:44:00,15.2,8.0,30.10,NW,310,2.0,5.0,72,0.00,,,0.00,weatherlink.com 1.10,2013-03-22 12:44:00,
2013-03-22 08:59:00,16.2,7.0,30.10,WNW,293,3.0,7.0,67,0.00,,,0.00,weatherlink.com 1.10,2013-03-22 12:59:00,
2013-03-22 09:14:00,17.5,7.0,30.11,WSW,257,5.0,9.0,64,0.00,,,0.00,weatherlink.com 1.10,2013-03-22 13:14:00,
2013-03-22 09:29:00,18.2,7.0,30.10,West,268,2.0,12.0,61,0.00,,,0.00,weatherlink.com 1.10,2013-03-22 13:29:00,
2013-03-22 09:44:00,19.3,6.0,30.10,NW,310,2.0,6.0,57,0.00,,,0.00,weatherlink.com 1.10,2013-03-22 13:44:00,
2013-03-22 09:59:00,20.6,7.0,30.10,West,260,5.0,7.0,56,0.00,,,0.00,weatherlink.com 1.10,2013-03-22 13:59:00,
2013-03-22 10:14:00,20.7,8.0,30.11,East,85,3.0,9.0,57,0.00,,,0.00,weatherlink.com 1.10,2013-03-22 14:14:00,
2013-03-22 10:29:00,21.7,8.0,30.12,NE,39,1.0,7.0,56,0.00,,,0.00,weatherlink.com 1.10,2013-03-22 14:29:00,
2013-03-22 10:44:00,22.4,9.0,30.11,West,263,1.0,6.0,56,0.00,,,0.00,weatherlink.com 1.10,2013-03-22 14:44:00,
2013-03-22 10:59:00,22.9,10.0,30.11,WNW,288,0.0,6.0,57,0.00,,,0.00,weatherlink.com 1.10,2013-03-22 14:59:00,
2013-03-22 11:14:00,23.5,8.0,30.11,NW,307,5.0,9.0,52,0.00,,,0.00,weatherlink.com 1.10,2013-03-22 15:14:00,
2013-03-22 11:29:00,24.4,8.0,30.12,NW,311,3.0,9.0,50,0.00,,,0.00,weatherlink.com 1.10,2013-03-22 15:29:00,
2013-03-22 11:44:00,24.9,9.0,30.12,West,269,0.0,7.0,50,0.00,,,0.00,weatherlink.com 1.10,2013-03-22 15:44:00,
2013-03-22 12:00:00,26.1,9.0,30.11,West,274,4.0,7.0,49,0.00,,,0.00,weatherlink.com 1.10,2013-03-22 16:00:00,
2013-03-22 12:15:00,26.7,7.0,30.11,NW,315,4.0,7.0,44,0.00,,,0.00,weatherlink.com 1.10,2013-03-22 16:15:00,
2013-03-22 12:30:00,27.5,7.0,30.11,WSW,250,2.0,6.0,42,0.00,,,0.00,weatherlink.com 1.10,2013-03-22 16:30:00,
2013-03-22 12:45:00,28.3,6.0,30.11,NE,50,1.0,8.0,38,0.00,,,0.00,weatherlink.com 1.10,2013-03-22 16:45:00,
2013-03-22 13:00:00,29.3,7.0,30.11,NW,323,1.0,6.0,39,0.00,,,0.00,weatherlink.com 1.10,2013-03-22 17:00:00,
2013-03-22 13:15:00,29.5,7.0,30.11,WSW,246,5.0,10.0,38,0.00,,,0.00,weatherlink.com 1.10,2013-03-22 17:15:00,
2013-03-22 13:30:00,29.7,9.0,30.10,NNW,346,2.0,9.0,41,0.00,,,0.00,weatherlink.com 1.10,2013-03-22 17:30:00,
2013-03-22 13:45:00,30.9,7.0,30.10,East,84,1.0,7.0,37,0.00,,,0.00,weatherlink.com 1.10,2013-03-22 17:45:00,
2013-03-22 14:00:00,32.7,10.0,30.10,SSW,213,0.0,6.0,39,0.00,,,0.00,weatherlink.com 1.10,2013-03-22 18:00:00,
2013-03-22 14:15:00,33.2,10.0,30.09,SE,137,1.0,7.0,38,0.00,,,0.00,weatherlink.com 1.10,2013-03-22 18:15:00,
2013-03-22 14:30:00,34.6,11.0,30.08,NW,304,0.0,6.0,38,0.00,,,0.00,weatherlink.com 1.10,2013-03-22 18:30:00,
2013-03-22 14:45:00,35.0,10.0,30.09,NE,54,3.0,5.0,35,0.00,,,0.00,weatherlink.com 1.10,2013-03-22 18:45:00,
2013-03-22 15:00:00,36.7,10.0,30.08,NE,50,5.0,5.0,33,0.00,,,0.00,weatherlink.com 1.10,2013-03-22 19:00:00,
2013-03-22 15:15:00,34.5,5.0,30.08,NNW,342,3.0,10.0,29,0.00,,,0.00,weatherlink.com 1.10,2013-03-22 19:15:00,
2013-03-22 15:30:00,34.3,6.0,30.08,NNE,32,2.0,5.0,31,0.00,,,0.00,weatherlink.com 1.10,2013-03-22 19:30:00,
2013-03-22 15:46:00,34.0,8.0,30.08,ENE,58,0.0,9.0,34,0.00,,,0.00,weatherlink.com 1.10,2013-03-22 19:46:00,
2013-03-22 16:01:00,34.5,9.0,30.07,NW,308,0.0,5.0,34,0.00,,,0.00,weatherlink.com 1.10,2013-03-22 20:01:00,
2013-03-22 16:46:00,33.4,8.0,30.07,WNW,301,2.0,4.0,35,0.00,,,0.00,weatherlink.com 1.10,2013-03-22 20:46:00,
2013-03-22 17:01:00,32.8,8.0,30.08,NNE,31,1.0,4.0,35,0.00,,,0.00,weatherlink.com 1.10,2013-03-22 21:01:00,
2013-03-22 17:31:00,31.4,10.0,30.07,NW,311,1.0,5.0,40,0.00,,,0.00,weatherlink.com 1.10,2013-03-22 21:31:00,
2013-03-22 17:46:00,31.3,10.0,30.07,WNW,292,0.0,4.0,41,0.00,,,0.00,weatherlink.com 1.10,2013-03-22 21:46:00,
2013-03-22 18:01:00,30.9,10.0,30.07,WNW,301,0.0,3.0,42,0.00,,,0.00,weatherlink.com 1.10,2013-03-22 22:01:00,
2013-03-22 18:16:00,30.9,8.0,30.07,WNW,292,1.0,4.0,39,0.00,,,0.00,weatherlink.com 1.10,2013-03-22 22:16:00,
2013-03-22 18:31:00,30.9,10.0,30.07,WNW,294,0.0,2.0,41,0.00,,,0.00,weatherlink.com 1.10,2013-03-22 22:31:00,
2013-03-22 18:46:00,30.8,8.0,30.07,NE,44,0.0,3.0,39,0.00,,,0.00,weatherlink.com 1.10,2013-03-22 22:46:00,
2013-03-22 19:02:00,30.5,9.0,30.07,NE,41,1.0,5.0,41,0.00,,,0.00,weatherlink.com 1.10,2013-03-22 23:02:00,
2013-03-22 19:17:00,30.0,11.0,30.08,NE,50,1.0,5.0,46,0.00,,,0.00,weatherlink.com 1.10,2013-03-22 23:17:00,
2013-03-22 19:32:00,29.7,14.0,30.07,WNW,294,0.0,3.0,53,0.00,,,0.00,weatherlink.com 1.10,2013-03-22 23:32:00,
2013-03-22 19:47:00,29.5,17.0,30.07,NW,315,0.0,11.0,59,0.00,,,0.00,weatherlink.com 1.10,2013-03-22 23:47:00,
2013-03-22 20:02:00,29.1,17.0,30.07,NW,318,2.0,3.0,61,0.00,,,0.00,weatherlink.com 1.10,2013-03-23 00:02:00,
2013-03-22 20:17:00,28.5,20.0,30.06,WSW,252,2.0,6.0,71,0.00,,,0.00,weatherlink.com 1.10,2013-03-23 00:17:00,
2013-03-22 20:47:00,27.8,22.0,30.07,WNW,293,0.0,2.0,79,0.00,,,0.00,weatherlink.com 1.10,2013-03-23 00:47:00,
2013-03-22 21:02:00,27.8,23.0,30.07,South,171,0.0,4.0,82,0.00,,,0.00,weatherlink.com 1.10,2013-03-23 01:02:00,
2013-03-22 21:17:00,27.6,23.0,30.07,WSW,242,3.0,4.0,82,0.00,,,0.00,weatherlink.com 1.10,2013-03-23 01:17:00,
2013-03-22 21:32:00,27.8,24.0,30.07,West,268,0.0,5.0,84,0.00,,,0.00,weatherlink.com 1.10,2013-03-23 01:32:00,
2013-03-22 21:47:00,28.2,25.0,30.07,WNW,291,2.0,6.0,87,0.00,,,0.00,weatherlink.com 1.10,2013-03-23 01:47:00,
2013-03-22 22:02:00,28.3,25.0,30.07,NNE,27,6.0,8.0,88,0.00,,,0.00,weatherlink.com 1.10,2013-03-23 02:02:00,
2013-03-22 22:17:00,28.2,25.0,30.06,NW,326,3.0,7.0,89,0.00,,,0.00,weatherlink.com 1.10,2013-03-23 02:17:00,
2013-03-22 22:33:00,28.3,26.0,30.07,NE,46,2.0,9.0,90,0.00,,,0.00,weatherlink.com 1.10,2013-03-23 02:33:00,
2013-03-22 22:48:00,28.2,26.0,30.06,West,281,2.0,9.0,90,0.00,,,0.00,weatherlink.com 1.10,2013-03-23 02:48:00,
2013-03-22 23:03:00,28.2,26.0,30.06,NW,324,9.0,11.0,91,0.00,,,0.00,weatherlink.com 1.10,2013-03-23 03:03:00,
2013-03-22 23:18:00,28.4,26.0,30.07,NNW,346,4.0,10.0,91,0.00,,,0.00,weatherlink.com 1.10,2013-03-23 03:18:00,
2013-03-22 23:33:00,28.5,26.0,30.06,NNW,348,4.0,10.0,91,0.00,,,0.00,weatherlink.com 1.10,2013-03-23 03:33:00,
2013-03-22 23:48:00,28.5,26.0,30.06,NE,34,4.0,11.0,91,0.00,,,0.00,weatherlink.com 1.10,2013-03-23 03:48:00,